Time;durP1;ratioP1;P1;durP2;ratioP2;P2;SDS_P1;SDS_P2;PMS_P1;PMS_P2;Temp;Humidity;BMP_temperature;BMP_pressure;BME280_temperature;BME280_humidity;BME280_pressure;Samples;Min_cycle;Max_cycle;Signal;HPM_P1;HPM_P2
2022/01/10 00:00:31;;;;;;;25.60;8.52;;;4.60;99.90;;;;;;5087861;28;20032;-45
2022/01/10 00:02:58;;;;;;;22.10;8.15;;;4.60;99.90;;;;;;5088359;28;20058;-45
2022/01/10 00:05:24;;;;;;;20.98;9.27;;;4.60;99.90;;;;;;5081986;28;20020;-44
2022/01/10 00:07:50;;;;;;;22.23;8.57;;;4.60;99.90;;;;;;5079940;28;20575;-47
2022/01/10 00:10:16;;;;;;;21.20;8.40;;;4.60;99.90;;;;;;5087649;28;20120;-46
2022/01/10 00:12:42;;;;;;;25.13;9.18;;;4.60;99.90;;;;;;5088366;28;20488;-45
2022/01/10 00:15:09;;;;;;;23.60;9.98;;;4.60;99.90;;;;;;5088638;28;20056;-46
2022/01/10 00:17:38;;;;;;;22.25;9.00;;;4.60;99.90;;;;;;5088082;28;20056;-42
2022/01/10 00:20:06;;;;;;;22.05;9.57;;;4.50;99.90;;;;;;5088191;28;20029;-45
2022/01/10 00:22:32;;;;;;;24.15;10.15;;;4.50;99.90;;;;;;5088175;28;20062;-42
2022/01/10 00:24:57;;;;;;;26.88;11.10;;;4.50;99.90;;;;;;5088269;28;20046;-43
2022/01/10 00:27:23;;;;;;;34.60;10.65;;;4.50;99.90;;;;;;5088177;28;20036;-44
2022/01/10 00:29:48;;;;;;;34.28;10.15;;;4.50;99.90;;;;;;5087979;28;20320;-45
2022/01/10 00:32:14;;;;;;;29.38;10.18;;;4.50;99.90;;;;;;5087744;28;20036;-45
2022/01/10 00:34:39;;;;;;;22.40;10.55;;;4.50;99.90;;;;;;5083992;28;20066;-42
2022/01/10 00:37:05;;;;;;;30.77;10.95;;;4.50;99.90;;;;;;5081741;28;20062;-43
2022/01/10 00:39:30;;;;;;;28.60;11.77;;;4.50;99.90;;;;;;5091505;28;20020;-43
2022/01/10 00:41:56;;;;;;;18.90;9.35;;;4.50;99.90;;;;;;5091197;28;20036;-43
2022/01/10 00:44:25;;;;;;;28.98;11.05;;;4.50;99.90;;;;;;5090228;28;20020;-43
2022/01/10 00:46:52;;;;;;;33.83;10.93;;;4.50;99.90;;;;;;5091384;28;20051;-43
2022/01/10 00:49:17;;;;;;;27.33;10.10;;;4.50;99.90;;;;;;5090934;28;20046;-43
2022/01/10 00:51:42;;;;;;;29.38;10.77;;;4.60;99.90;;;;;;5090924;28;20024;-43
2022/01/10 00:54:08;;;;;;;29.40;11.07;;;4.60;99.90;;;;;;5091303;28;20496;-42
2022/01/10 00:56:34;;;;;;;29.30;11.15;;;4.50;99.90;;;;;;5091365;28;20027;-44
2022/01/10 00:58:59;;;;;;;25.92;9.75;;;4.50;99.90;;;;;;5089754;28;20020;-44
2022/01/10 01:01:25;;;;;;;19.88;9.77;;;4.50;99.90;;;;;;5090644;28;20126;-42
2022/01/10 01:03:50;;;;;;;30.33;10.45;;;4.50;99.90;;;;;;5091129;28;20073;-42
2022/01/10 01:06:16;;;;;;;27.98;10.73;;;4.50;99.90;;;;;;5079087;28;20474;-45
2022/01/10 01:08:43;;;;;;;26.52;11.73;;;4.50;99.90;;;;;;5088659;28;20031;-44
2022/01/10 01:13:56;;;;;;;24.48;10.23;;;4.50;99.90;;;;;;5091252;28;20512;-43
2022/01/10 01:16:44;;;;;;;24.05;11.40;;;4.50;99.90;;;;;;5090877;28;20031;-43
2022/01/10 01:20:04;;;;;;;27.58;10.85;;;4.50;99.90;;;;;;5089738;28;20020;-44
2022/01/10 01:24:40;;;;;;;22.55;11.23;;;4.50;99.90;;;;;;5090835;28;20043;-43
2022/01/10 01:27:06;;;;;;;28.13;12.13;;;4.50;99.90;;;;;;5090874;28;20028;-43
2022/01/10 01:29:31;;;;;;;30.00;11.68;;;4.50;99.90;;;;;;5090452;28;20043;-44
2022/01/10 01:31:58;;;;;;;29.65;12.73;;;4.50;99.90;;;;;;5090391;28;20032;-43
2022/01/10 01:34:24;;;;;;;37.83;13.32;;;4.60;99.90;;;;;;5085055;28;20048;-42
2022/01/10 01:36:53;;;;;;;29.00;13.30;;;4.60;99.90;;;;;;5080748;28;20028;-43
2022/01/10 01:39:23;;;;;;;31.77;13.13;;;4.60;99.90;;;;;;5090273;28;20547;-44
2022/01/10 01:42:02;;;;;;;36.63;12.37;;;4.60;99.90;;;;;;5089999;28;20525;-43
2022/01/10 01:44:27;;;;;;;28.30;12.52;;;4.60;99.90;;;;;;5089853;28;20093;-43
2022/01/10 01:46:53;;;;;;;32.60;13.43;;;4.60;99.90;;;;;;5090265;28;20090;-45
2022/01/10 01:49:19;;;;;;;39.17;15.05;;;4.60;99.90;;;;;;5089727;28;20036;-45
2022/01/10 01:51:44;;;;;;;31.30;12.30;;;4.50;99.90;;;;;;5089804;28;20449;-43
2022/01/10 01:54:10;;;;;;;40.05;14.73;;;4.50;99.90;;;;;;5090204;28;20025;-43
2022/01/10 01:56:38;;;;;;;29.48;13.75;;;4.50;99.90;;;;;;5090029;28;20111;-43
2022/01/10 01:59:05;;;;;;;30.23;13.27;;;4.50;99.90;;;;;;5089843;28;20462;-43
2022/01/10 02:01:31;;;;;;;34.72;14.23;;;4.50;99.90;;;;;;5088321;28;20050;-44
2022/01/10 02:03:57;;;;;;;40.13;15.02;;;4.50;99.90;;;;;;5088213;28;20017;-43
2022/01/10 02:06:23;;;;;;;35.47;14.10;;;4.60;99.90;;;;;;5081167;28;20030;-45
2022/01/10 02:08:48;;;;;;;33.65;13.02;;;4.50;99.90;;;;;;5089835;28;20104;-45
2022/01/10 02:11:14;;;;;;;29.58;13.52;;;4.50;99.90;;;;;;5089387;28;20504;-44
2022/01/10 02:13:42;;;;;;;34.47;15.35;;;4.50;99.90;;;;;;5089775;28;20078;-43
2022/01/10 02:16:10;;;;;;;34.97;14.88;;;4.50;99.90;;;;;;5083660;28;20024;-43
2022/01/10 02:18:36;;;;;;;34.03;14.75;;;4.50;99.90;;;;;;5089955;28;20055;-43
2022/01/10 02:21:05;;;;;;;36.13;14.25;;;4.50;99.90;;;;;;5089080;28;20428;-44
2022/01/10 02:23:31;;;;;;;30.55;13.52;;;4.50;99.90;;;;;;5089642;28;20020;-44
2022/01/10 02:25:57;;;;;;;36.75;13.70;;;4.50;99.90;;;;;;5088236;28;20024;-45
2022/01/10 02:28:23;;;;;;;34.88;15.32;;;4.50;99.90;;;;;;5067402;28;20177;-43
2022/01/10 02:30:55;;;;;;;31.77;14.23;;;4.50;99.90;;;;;;5079036;28;20036;-44
2022/01/10 02:33:21;;;;;;;28.63;13.45;;;4.50;99.90;;;;;;5089450;28;20394;-46
2022/01/10 02:36:01;;;;;;;32.83;14.98;;;4.50;99.90;;;;;;5082317;28;20461;-44
2022/01/10 02:38:27;;;;;;;31.35;14.23;;;4.50;99.90;;;;;;5076601;28;20084;-44
2022/01/10 02:40:53;;;;;;;37.85;13.50;;;4.50;99.90;;;;;;5068366;28;20024;-46
2022/01/10 02:43:18;;;;;;;32.40;12.73;;;4.50;99.90;;;;;;5069131;28;20474;-43
2022/01/10 02:45:45;;;;;;;38.55;13.38;;;4.40;99.90;;;;;;5068959;28;20320;-43
2022/01/10 02:48:11;;;;;;;31.17;13.98;;;4.40;99.90;;;;;;5069166;28;20383;-43
2022/01/10 02:50:37;;;;;;;41.30;14.48;;;4.40;99.90;;;;;;5068293;28;20043;-47
2022/01/10 02:53:02;;;;;;;37.42;14.30;;;4.40;99.90;;;;;;5068944;28;20040;-44
2022/01/10 02:55:28;;;;;;;39.63;13.80;;;4.40;99.90;;;;;;5068853;28;20051;-45
2022/01/10 02:57:53;;;;;;;34.30;13.20;;;4.40;99.90;;;;;;5067908;28;20168;-44
2022/01/10 03:00:24;;;;;;;27.23;13.02;;;4.40;99.90;;;;;;5067242;28;20030;-43
2022/01/10 03:02:52;;;;;;;31.27;12.55;;;4.40;99.90;;;;;;5068678;28;20100;-43
2022/01/10 03:05:19;;;;;;;30.20;13.15;;;4.40;99.90;;;;;;5074780;28;20115;-45
2022/01/10 03:07:45;;;;;;;30.25;12.95;;;4.40;99.90;;;;;;5080513;28;20028;-44
2022/01/10 03:10:11;;;;;;;34.47;13.23;;;4.40;99.90;;;;;;5087644;28;20077;-43
2022/01/10 03:12:37;;;;;;;23.30;11.65;;;4.40;99.90;;;;;;5088388;28;20447;-43
2022/01/10 03:15:05;;;;;;;38.47;13.40;;;4.40;99.90;;;;;;5088793;28;20413;-44
2022/01/10 03:17:30;;;;;;;42.35;13.65;;;4.40;99.90;;;;;;5087418;28;20059;-44
2022/01/10 03:19:56;;;;;;;28.52;12.98;;;4.40;99.90;;;;;;5088237;28;20052;-45
2022/01/10 03:22:22;;;;;;;29.50;13.35;;;4.30;99.90;;;;;;5088342;28;20020;-46
2022/01/10 03:24:47;;;;;;;39.15;12.88;;;4.30;99.90;;;;;;5087323;28;20020;-43
2022/01/10 03:27:13;;;;;;;34.80;12.82;;;4.30;99.90;;;;;;5088549;28;20032;-45
2022/01/10 03:29:38;;;;;;;31.15;12.75;;;4.30;99.90;;;;;;5086738;28;20034;-44
2022/01/10 03:32:06;;;;;;;28.85;13.52;;;4.30;99.90;;;;;;5076075;28;20111;-43
2022/01/10 03:34:32;;;;;;;28.35;11.43;;;4.30;99.90;;;;;;5057089;28;20581;-45
2022/01/10 03:36:57;;;;;;;28.35;11.88;;;4.30;99.90;;;;;;5069709;28;20111;-44
2022/01/10 03:39:23;;;;;;;32.78;13.40;;;4.30;99.90;;;;;;5057485;28;20096;-43
2022/01/10 03:41:49;;;;;;;33.75;13.90;;;4.20;99.90;;;;;;5057865;28;20247;-44
2022/01/10 03:44:14;;;;;;;36.13;13.90;;;4.20;99.90;;;;;;5056423;28;20028;-44
2022/01/10 03:46:40;;;;;;;32.97;14.45;;;4.20;99.90;;;;;;5057719;28;20398;-43
2022/01/10 03:49:06;;;;;;;31.20;13.55;;;4.20;99.90;;;;;;5058659;28;20044;-43
2022/01/10 03:51:32;;;;;;;29.02;13.15;;;4.20;99.90;;;;;;5054270;28;20035;-44
2022/01/10 03:53:57;;;;;;;35.42;13.18;;;4.20;99.90;;;;;;5057835;28;20482;-44
2022/01/10 03:56:26;;;;;;;27.75;13.50;;;4.20;99.90;;;;;;5055400;28;20047;-44
2022/01/10 03:58:51;;;;;;;45.75;14.45;;;4.20;99.90;;;;;;5057301;28;20108;-44
2022/01/10 04:01:17;;;;;;;36.70;13.10;;;4.20;99.90;;;;;;5056130;28;20616;-43
2022/01/10 04:03:42;;;;;;;38.92;14.35;;;4.20;99.90;;;;;;5067198;28;20028;-43
2022/01/10 04:06:08;;;;;;;37.22;14.65;;;4.20;99.90;;;;;;5056400;28;20486;-43
2022/01/10 04:08:34;;;;;;;42.30;14.48;;;4.20;99.90;;;;;;5059561;28;20031;-43
2022/01/10 04:11:00;;;;;;;29.48;13.98;;;4.10;99.90;;;;;;5051196;28;20133;-44
2022/01/10 04:13:26;;;;;;;36.15;12.57;;;4.10;99.90;;;;;;5051749;28;20478;-46
2022/01/10 04:15:52;;;;;;;34.33;15.32;;;4.20;99.90;;;;;;5052099;28;20411;-43
2022/01/10 04:18:18;;;;;;;40.85;13.57;;;4.20;99.90;;;;;;5051626;28;20029;-43
2022/01/10 04:20:46;;;;;;;25.77;11.63;;;4.20;99.90;;;;;;5051150;28;20470;-45
2022/01/10 04:23:13;;;;;;;27.25;12.27;;;4.20;99.90;;;;;;5051747;28;20039;-44
2022/01/10 04:25:39;;;;;;;29.52;12.70;;;4.20;99.90;;;;;;5051567;28;20021;-44
2022/01/10 04:28:05;;;;;;;35.92;13.13;;;4.20;99.90;;;;;;5051680;28;20404;-47
2022/01/10 04:30:30;;;;;;;33.67;12.57;;;4.20;99.90;;;;;;5051466;28;20063;-44
2022/01/10 04:33:00;;;;;;;26.05;11.80;;;4.20;99.90;;;;;;5077976;28;20247;-44
2022/01/10 04:35:26;;;;;;;38.05;13.32;;;4.20;99.90;;;;;;5083635;28;20016;-45
2022/01/10 04:37:52;;;;;;;44.63;13.15;;;4.20;99.90;;;;;;5082874;28;20031;-43
2022/01/10 04:40:18;;;;;;;36.90;13.02;;;4.20;99.90;;;;;;5091248;28;20027;-44
2022/01/10 04:42:44;;;;;;;36.17;12.73;;;4.20;99.90;;;;;;5089788;28;20020;-46
2022/01/10 04:45:10;;;;;;;37.90;13.88;;;4.20;99.90;;;;;;5091436;28;20059;-44
2022/01/10 04:47:36;;;;;;;30.67;12.70;;;4.20;99.90;;;;;;5090103;28;20389;-44
2022/01/10 04:50:19;;;;;;;30.35;13.10;;;4.20;99.90;;;;;;5090790;28;20119;-44
2022/01/10 04:52:45;;;;;;;34.78;12.88;;;4.20;99.90;;;;;;5090825;28;20024;-44
2022/01/10 04:55:11;;;;;;;36.58;13.48;;;4.20;99.90;;;;;;5091248;28;20020;-44
2022/01/10 04:57:37;;;;;;;38.78;14.27;;;4.20;99.90;;;;;;5091269;28;20040;-45
2022/01/10 05:00:05;;;;;;;37.35;14.15;;;4.10;99.90;;;;;;5090352;28;20555;-44
2022/01/10 05:02:30;;;;;;;35.53;13.68;;;4.10;99.90;;;;;;5070551;28;20052;-46
2022/01/10 05:04:55;;;;;;;31.38;12.38;;;4.10;99.90;;;;;;5073256;28;20052;-46
2022/01/10 05:07:21;;;;;;;42.70;14.40;;;4.20;99.90;;;;;;5072946;28;20033;-45
2022/01/10 05:09:47;;;;;;;31.80;13.25;;;4.20;99.90;;;;;;5069315;28;20114;-44
2022/01/10 05:12:12;;;;;;;35.83;13.68;;;4.20;99.90;;;;;;5071830;28;20032;-44
2022/01/10 05:14:39;;;;;;;42.15;14.63;;;4.20;99.90;;;;;;5072381;28;20029;-45
2022/01/10 05:17:04;;;;;;;38.42;14.57;;;4.20;99.90;;;;;;5072261;28;20104;-44
2022/01/10 05:19:30;;;;;;;39.03;13.50;;;4.20;99.90;;;;;;5071218;28;20104;-45
2022/01/10 05:21:55;;;;;;;33.88;12.30;;;4.20;99.90;;;;;;5071258;28;20121;-44
2022/01/10 05:24:21;;;;;;;36.13;13.85;;;4.20;99.90;;;;;;5072302;28;20021;-44
2022/01/10 05:26:46;;;;;;;45.97;14.48;;;4.20;99.90;;;;;;5072097;28;20063;-45
2022/01/10 05:29:12;;;;;;;32.30;13.40;;;4.20;99.90;;;;;;5072069;28;20029;-44
2022/01/10 05:31:37;;;;;;;34.15;12.57;;;4.20;99.90;;;;;;5071359;28;20054;-45
2022/01/10 05:34:03;;;;;;;41.58;15.85;;;4.20;99.90;;;;;;5071914;28;20373;-46
2022/01/10 05:36:29;;;;;;;44.33;14.60;;;4.20;99.90;;;;;;5079133;28;20142;-45
2022/01/10 05:38:55;;;;;;;43.90;15.13;;;4.20;99.90;;;;;;5082528;28;20293;-45
2022/01/10 05:41:22;;;;;;;42.35;15.93;;;4.20;99.90;;;;;;5064629;28;20107;-44
2022/01/10 05:43:48;;;;;;;41.03;14.77;;;4.20;99.90;;;;;;5089724;28;20028;-44
2022/01/10 05:46:19;;;;;;;39.70;14.40;;;4.20;99.90;;;;;;5090956;28;20037;-43
2022/01/10 05:48:47;;;;;;;37.50;13.57;;;4.20;99.90;;;;;;5090938;28;20067;-43
2022/01/10 05:51:14;;;;;;;41.90;14.27;;;4.30;99.90;;;;;;5089943;28;20032;-46
2022/01/10 05:53:39;;;;;;;41.33;13.93;;;4.20;99.90;;;;;;5090800;28;20111;-46
2022/01/10 05:56:05;;;;;;;34.42;14.45;;;4.30;99.90;;;;;;5090795;28;20509;-46
2022/01/10 05:58:30;;;;;;;45.22;14.63;;;4.20;99.90;;;;;;5090452;28;20240;-45
2022/01/10 06:00:56;;;;;;;47.40;14.63;;;4.30;99.90;;;;;;5090021;28;20030;-44
2022/01/10 06:03:21;;;;;;;53.53;14.82;;;4.30;99.90;;;;;;5089189;28;20031;-44
2022/01/10 06:05:47;;;;;;;46.35;14.70;;;4.30;99.90;;;;;;5082256;28;20019;-46
2022/01/10 06:08:12;;;;;;;39.35;13.23;;;4.30;99.90;;;;;;5078231;28;20039;-44
2022/01/10 06:10:39;;;;;;;41.72;15.38;;;4.20;99.90;;;;;;5088038;28;20934;-44
2022/01/10 06:13:04;;;;;;;44.65;15.98;;;4.20;99.90;;;;;;5070658;28;20646;-44
2022/01/10 06:15:30;;;;;;;34.67;14.57;;;4.20;99.90;;;;;;5065998;28;20040;-44
2022/01/10 06:17:55;;;;;;;47.83;15.05;;;4.20;99.90;;;;;;5070086;28;20039;-43
2022/01/10 06:20:21;;;;;;;39.13;15.27;;;4.20;99.90;;;;;;5069970;28;20029;-43
2022/01/10 06:22:46;;;;;;;43.20;15.20;;;4.20;99.90;;;;;;5070279;28;20016;-44
2022/01/10 06:25:16;;;;;;;47.78;16.52;;;4.20;99.90;;;;;;5070677;28;20070;-43
2022/01/10 06:27:42;;;;;;;42.30;14.85;;;4.20;99.90;;;;;;5069986;28;20042;-47
2022/01/10 06:30:08;;;;;;;40.25;15.32;;;4.20;99.90;;;;;;5052779;28;20481;-47
2022/01/10 06:32:34;;;;;;;36.47;16.10;;;4.20;99.90;;;;;;5061962;28;20039;-44
2022/01/10 06:34:59;;;;;;;36.83;14.02;;;4.20;99.90;;;;;;5075057;28;20041;-43
2022/01/10 06:37:25;;;;;;;51.40;15.93;;;4.20;99.90;;;;;;5064081;28;20615;-43
2022/01/10 06:39:52;;;;;;;39.03;15.38;;;4.30;99.90;;;;;;5067267;28;20486;-43
2022/01/10 06:42:18;;;;;;;45.30;15.45;;;4.20;99.90;;;;;;5049903;28;20017;-44
2022/01/10 06:44:45;;;;;;;43.97;14.60;;;4.20;99.90;;;;;;5061307;28;20028;-45
2022/01/10 06:47:10;;;;;;;39.90;14.50;;;4.20;99.90;;;;;;5050330;28;20068;-44
2022/01/10 06:49:36;;;;;;;38.53;15.02;;;4.20;99.90;;;;;;5063594;28;20486;-44
2022/01/10 06:52:02;;;;;;;50.47;16.10;;;4.20;99.90;;;;;;5064434;28;20138;-44
2022/01/10 06:54:27;;;;;;;36.42;14.63;;;4.20;99.90;;;;;;5050553;28;20025;-45
2022/01/10 06:56:58;;;;;;;49.35;18.90;;;4.20;99.90;;;;;;5052846;28;20402;-46
2022/01/10 06:59:27;;;;;;;32.35;15.48;;;4.10;99.90;;;;;;5068775;28;20027;-44
2022/01/10 07:01:55;;;;;;;37.83;15.45;;;4.20;99.90;;;;;;5067779;28;20124;-44
2022/01/10 07:04:21;;;;;;;40.10;16.75;;;4.10;99.90;;;;;;5068363;28;20450;-46
2022/01/10 07:06:47;;;;;;;35.05;16.73;;;4.10;99.90;;;;;;5075628;28;20049;-43
2022/01/10 07:09:12;;;;;;;46.10;16.67;;;4.10;99.90;;;;;;5074754;28;20027;-44
2022/01/10 07:11:38;;;;;;;36.55;16.88;;;4.10;99.90;;;;;;5064645;28;20111;-43
2022/01/10 07:14:04;;;;;;;44.58;16.40;;;4.10;99.90;;;;;;5058200;28;20100;-44
2022/01/10 07:16:30;;;;;;;42.00;16.60;;;4.10;99.90;;;;;;5066531;28;20200;-43
2022/01/10 07:18:55;;;;;;;48.45;16.20;;;4.10;99.90;;;;;;5066795;28;20035;-45
2022/01/10 07:21:21;;;;;;;41.03;16.13;;;4.10;99.90;;;;;;5068292;28;20373;-44
2022/01/10 07:23:48;;;;;;;45.60;16.20;;;4.10;99.90;;;;;;5081092;28;20028;-45
2022/01/10 07:26:14;;;;;;;39.83;15.70;;;4.00;99.90;;;;;;5080505;28;20008;-44
2022/01/10 07:28:39;;;;;;;50.95;18.80;;;4.10;99.90;;;;;;5070170;28;20101;-45
2022/01/10 07:31:05;;;;;;;42.10;17.60;;;4.10;99.90;;;;;;5068656;28;20032;-44
2022/01/10 07:33:30;;;;;;;53.42;17.40;;;4.10;99.90;;;;;;5062767;28;20025;-44
2022/01/10 07:35:56;;;;;;;46.03;17.73;;;4.10;99.90;;;;;;5079399;28;20534;-45
2022/01/10 07:38:23;;;;;;;46.97;18.48;;;4.10;99.90;;;;;;5080105;28;20050;-45
2022/01/10 07:40:49;;;;;;;46.55;18.02;;;4.10;99.90;;;;;;5065076;28;20036;-45
2022/01/10 07:43:14;;;;;;;42.83;18.83;;;4.10;99.90;;;;;;5051784;28;20033;-47
2022/01/10 07:45:40;;;;;;;44.88;18.10;;;4.10;99.90;;;;;;5054046;28;20017;-45
2022/01/10 07:48:05;;;;;;;38.42;16.73;;;4.10;99.90;;;;;;5052452;28;20033;-46
2022/01/10 07:50:31;;;;;;;49.97;18.20;;;4.10;99.90;;;;;;5072687;28;20634;-46
2022/01/10 07:52:56;;;;;;;44.30;14.95;;;4.20;99.90;;;;;;5073303;28;20158;-46
2022/01/10 07:55:22;;;;;;;43.97;17.52;;;4.20;99.90;;;;;;5073934;28;20382;-46
2022/01/10 07:57:47;;;;;;;42.15;16.42;;;4.10;99.90;;;;;;5057352;28;20111;-45
2022/01/10 08:00:13;;;;;;;40.63;15.13;;;4.10;99.90;;;;;;5061599;28;20040;-47
2022/01/10 08:02:39;;;;;;;44.50;17.05;;;4.10;99.90;;;;;;5057998;28;20116;-46
2022/01/10 08:05:07;;;;;;;40.63;17.35;;;4.10;99.90;;;;;;5055190;28;20455;-46
2022/01/10 08:07:33;;;;;;;42.80;17.73;;;4.10;99.90;;;;;;5078350;28;20024;-45
2022/01/10 08:09:59;;;;;;;47.33;17.13;;;4.20;99.90;;;;;;5056581;28;20536;-50
2022/01/10 08:12:24;;;;;;;53.53;17.02;;;4.10;99.90;;;;;;5070160;28;20033;-45
2022/01/10 08:14:49;;;;;;;40.75;16.90;;;4.10;99.90;;;;;;5067056;28;20116;-45
2022/01/10 08:17:15;;;;;;;44.83;17.83;;;4.10;99.90;;;;;;5056264;28;20501;-45
2022/01/10 08:19:40;;;;;;;44.13;16.80;;;4.10;99.90;;;;;;5061579;28;20028;-48
2022/01/10 08:22:07;;;;;;;53.15;17.58;;;4.20;99.90;;;;;;5055123;28;20453;-46
2022/01/10 08:24:33;;;;;;;42.00;17.38;;;4.10;99.90;;;;;;5052981;28;20114;-45
2022/01/10 08:26:59;;;;;;;51.47;18.67;;;4.10;99.90;;;;;;5084115;28;20035;-45
2022/01/10 08:29:24;;;;;;;42.92;15.85;;;4.20;99.90;;;;;;5076737;28;20029;-45
2022/01/10 08:31:50;;;;;;;54.97;19.83;;;4.20;99.90;;;;;;5061711;28;20067;-46
2022/01/10 08:34:16;;;;;;;48.85;18.58;;;4.20;99.90;;;;;;5073426;28;20115;-45
2022/01/10 08:36:41;;;;;;;51.90;17.80;;;4.20;99.90;;;;;;5078650;28;20543;-45
2022/01/10 08:39:08;;;;;;;49.72;18.88;;;4.20;99.90;;;;;;5071699;28;20540;-51
2022/01/10 08:41:35;;;;;;;47.05;18.58;;;4.20;99.90;;;;;;5055015;28;20084;-45
2022/01/10 08:44:02;;;;;;;53.63;18.60;;;4.20;99.90;;;;;;5052611;28;20025;-45
2022/01/10 08:46:28;;;;;;;39.00;16.85;;;4.20;99.90;;;;;;5058158;28;20560;-45
2022/01/10 08:48:53;;;;;;;46.88;17.65;;;4.30;99.90;;;;;;5059012;28;20024;-45
2022/01/10 08:51:19;;;;;;;44.53;16.67;;;4.30;99.90;;;;;;5058704;28;20037;-45
2022/01/10 08:53:45;;;;;;;44.53;17.13;;;4.30;99.90;;;;;;5052670;28;20032;-49
2022/01/10 08:56:10;;;;;;;47.65;17.13;;;4.30;99.90;;;;;;5060179;28;20028;-45
2022/01/10 08:58:36;;;;;;;47.17;16.30;;;4.30;99.90;;;;;;5062449;28;20063;-45
2022/01/10 09:01:04;;;;;;;41.25;16.80;;;4.30;99.90;;;;;;5054714;28;20086;-45
2022/01/10 09:03:31;;;;;;;49.35;17.63;;;4.30;99.90;;;;;;5052581;28;20025;-45
2022/01/10 09:05:57;;;;;;;45.65;17.55;;;4.30;99.90;;;;;;5064268;28;20016;-45
2022/01/10 09:08:25;;;;;;;53.17;16.63;;;4.40;99.90;;;;;;5079660;28;20096;-44
2022/01/10 09:10:51;;;;;;;36.90;15.73;;;4.40;99.90;;;;;;5069803;28;20794;-45
2022/01/10 09:13:17;;;;;;;40.28;16.90;;;4.40;99.90;;;;;;5051944;28;20083;-49
2022/01/10 09:15:42;;;;;;;49.13;18.00;;;4.50;99.90;;;;;;5052744;28;20029;-46
2022/01/10 09:18:08;;;;;;;37.38;16.80;;;4.60;99.90;;;;;;5072373;28;20601;-43
2022/01/10 09:20:34;;;;;;;42.20;16.35;;;4.60;99.90;;;;;;5056351;28;20037;-44
2022/01/10 09:23:00;;;;;;;41.22;16.10;;;4.60;99.90;;;;;;5070382;28;20406;-44
2022/01/10 09:25:26;;;;;;;47.15;16.40;;;4.60;99.90;;;;;;5072350;28;20020;-44
2022/01/10 09:27:51;;;;;;;41.70;14.95;;;4.60;99.90;;;;;;5058127;28;20033;-44
2022/01/10 09:30:17;;;;;;;45.05;17.88;;;4.70;99.90;;;;;;5068271;28;20736;-50
2022/01/10 09:32:42;;;;;;;45.97;17.20;;;4.60;99.90;;;;;;5051495;28;20036;-44
2022/01/10 09:35:08;;;;;;;41.05;17.92;;;4.70;99.90;;;;;;5058177;28;20027;-45
2022/01/10 09:37:34;;;;;;;45.67;17.30;;;4.70;99.90;;;;;;5067167;28;20027;-45
2022/01/10 09:39:59;;;;;;;41.70;16.38;;;4.70;99.90;;;;;;5080771;28;20024;-44
2022/01/10 09:42:25;;;;;;;48.55;17.52;;;4.60;99.90;;;;;;5072608;28;20036;-44
2022/01/10 09:44:51;;;;;;;50.95;16.52;;;4.70;99.90;;;;;;5071926;28;20039;-44
2022/01/10 09:47:17;;;;;;;38.50;16.58;;;4.70;99.90;;;;;;5056552;28;20126;-45
2022/01/10 09:49:42;;;;;;;56.55;17.77;;;4.60;99.90;;;;;;5066948;28;20075;-45
2022/01/10 09:52:09;;;;;;;32.40;16.13;;;4.60;99.90;;;;;;5071042;28;20103;-43
2022/01/10 09:54:35;;;;;;;39.08;17.25;;;4.60;99.90;;;;;;5053595;28;20021;-44
2022/01/10 09:57:00;;;;;;;41.15;16.20;;;4.60;99.90;;;;;;5056526;28;20033;-52
2022/01/10 09:59:26;;;;;;;38.42;16.58;;;4.70;99.90;;;;;;5057472;28;20036;-44
2022/01/10 10:01:52;;;;;;;45.00;15.63;;;4.60;99.90;;;;;;5061705;28;20032;-45
2022/01/10 10:04:18;;;;;;;36.15;15.27;;;4.70;99.90;;;;;;5058291;28;20025;-45
2022/01/10 10:06:45;;;;;;;35.60;17.63;;;4.70;99.90;;;;;;5071993;28;20028;-46
2022/01/10 10:09:11;;;;;;;41.50;17.15;;;4.70;99.90;;;;;;5075824;28;20028;-44
2022/01/10 10:11:37;;;;;;;47.40;18.02;;;4.70;99.90;;;;;;5053929;28;20033;-44
2022/01/10 10:14:05;;;;;;;36.70;16.40;;;4.70;99.90;;;;;;5051201;28;20158;-44
2022/01/10 10:16:35;;;;;;;42.97;16.15;;;4.80;99.90;;;;;;5053887;28;20013;-44
2022/01/10 10:19:01;;;;;;;47.03;18.30;;;4.80;99.90;;;;;;5061654;28;20048;-45
2022/01/10 10:21:27;;;;;;;36.40;13.88;;;4.80;99.90;;;;;;5080394;28;20032;-45
2022/01/10 10:23:52;;;;;;;33.05;15.15;;;4.90;99.90;;;;;;5066981;28;20033;-44
2022/01/10 10:26:21;;;;;;;50.17;18.75;;;4.90;99.90;;;;;;5052835;28;20039;-44
2022/01/10 10:28:48;;;;;;;45.70;19.23;;;4.90;99.90;;;;;;5070511;28;20032;-45
2022/01/10 10:31:23;;;;;;;41.97;16.85;;;4.90;99.90;;;;;;5069801;28;20036;-43
2022/01/10 10:33:50;;;;;;;43.95;16.55;;;4.90;99.90;;;;;;5070767;28;20076;-44
2022/01/10 10:36:16;;;;;;;39.75;17.27;;;5.00;99.90;;;;;;5073294;28;20024;-43
2022/01/10 10:38:42;;;;;;;42.17;17.23;;;5.00;99.90;;;;;;5078724;28;20024;-44
2022/01/10 10:41:08;;;;;;;42.85;17.23;;;5.00;99.90;;;;;;5055764;28;20100;-44
2022/01/10 10:43:39;;;;;;;44.70;15.85;;;4.90;99.90;;;;;;5048919;28;20082;-44
2022/01/10 10:46:11;;;;;;;45.80;16.98;;;5.00;99.90;;;;;;5050581;28;20040;-45
2022/01/10 10:48:38;;;;;;;38.80;17.05;;;4.90;99.90;;;;;;5059505;28;20143;-44
2022/01/10 10:51:03;;;;;;;35.72;15.52;;;4.90;99.90;;;;;;5059565;28;20129;-44
2022/01/10 10:53:29;;;;;;;38.13;16.73;;;4.90;99.90;;;;;;5048688;28;20465;-44
2022/01/10 10:55:58;;;;;;;28.55;13.95;;;5.00;99.90;;;;;;5050642;28;20517;-44
2022/01/10 10:58:26;;;;;;;40.30;13.38;;;4.90;99.90;;;;;;5067117;28;20029;-44
2022/01/10 11:00:55;;;;;;;24.05;12.68;;;4.90;99.90;;;;;;5051218;28;20033;-44
2022/01/10 11:03:21;;;;;;;35.88;14.00;;;4.90;99.90;;;;;;5053694;28;20024;-44
2022/01/10 11:05:48;;;;;;;33.63;13.68;;;4.90;99.90;;;;;;5063440;28;20032;-47
2022/01/10 11:08:13;;;;;;;30.00;13.30;;;5.00;99.90;;;;;;5071000;28;20035;-44
2022/01/10 11:10:39;;;;;;;28.30;13.57;;;5.00;99.90;;;;;;5057556;28;20041;-45
2022/01/10 11:13:06;;;;;;;30.45;13.55;;;5.10;99.90;;;;;;5049914;28;20495;-43
2022/01/10 11:15:32;;;;;;;27.58;13.50;;;5.10;99.90;;;;;;5056508;28;20021;-45
2022/01/10 11:18:03;;;;;;;26.25;12.55;;;5.20;99.90;;;;;;5068706;28;20020;-44
2022/01/10 11:20:29;;;;;;;33.50;14.48;;;5.20;99.90;;;;;;5054578;28;20028;-52
2022/01/10 11:22:57;;;;;;;32.83;14.13;;;5.20;99.90;;;;;;5049215;28;20029;-44
2022/01/10 11:25:32;;;;;;;33.22;15.32;;;5.20;99.90;;;;;;5049755;28;20485;-45
2022/01/10 11:28:01;;;;;;;36.63;14.52;;;5.20;99.90;;;;;;5063295;28;20113;-44
2022/01/10 11:30:34;;;;;;;37.03;15.57;;;5.30;99.90;;;;;;5051995;28;20044;-44
2022/01/10 11:33:04;;;;;;;32.08;14.85;;;5.20;99.90;;;;;;5049562;28;20052;-46
2022/01/10 11:35:42;;;;;;;33.00;15.85;;;5.30;99.90;;;;;;5052576;28;20401;-44
2022/01/10 11:38:20;;;;;;;39.42;15.82;;;5.20;99.90;;;;;;5064156;28;20096;-44
2022/01/10 11:40:51;;;;;;;29.48;13.35;;;5.30;99.90;;;;;;5060993;28;20025;-48
2022/01/10 11:43:41;;;;;;;33.20;15.40;;;5.30;99.90;;;;;;5049723;28;20018;-43
2022/01/10 11:46:25;;;;;;;35.58;15.32;;;5.20;99.90;;;;;;5050106;28;20025;-43
2022/01/10 11:49:00;;;;;;;36.78;14.55;;;5.20;99.90;;;;;;5062016;28;20040;-44
2022/01/10 11:51:34;;;;;;;25.58;14.07;;;5.20;99.90;;;;;;5059967;28;20387;-43
2022/01/10 11:54:19;;;;;;;30.30;13.45;;;5.20;99.90;;;;;;5049815;28;20029;-43
2022/01/10 11:56:55;;;;;;;33.33;14.93;;;5.20;99.90;;;;;;5055257;28;20028;-43
2022/01/10 11:59:31;;;;;;;41.55;15.20;;;5.20;99.90;;;;;;5060538;28;20112;-47
2022/01/10 12:01:59;;;;;;;30.48;13.13;;;5.20;99.90;;;;;;5057283;28;20115;-44
2022/01/10 12:04:28;;;;;;;34.88;15.23;;;5.30;99.90;;;;;;5049658;28;20049;-44
2022/01/10 12:06:54;;;;;;;28.58;13.27;;;5.30;99.90;;;;;;5073411;28;20028;-45
2022/01/10 12:09:20;;;;;;;31.40;12.93;;;5.30;99.90;;;;;;5056133;28;20029;-43
2022/01/10 12:11:49;;;;;;;30.50;13.05;;;5.30;99.90;;;;;;5060133;28;20368;-44
2022/01/10 12:14:15;;;;;;;24.73;13.27;;;5.30;99.90;;;;;;5067347;28;20570;-49
2022/01/10 12:16:41;;;;;;;29.73;12.48;;;5.30;99.90;;;;;;5075179;28;20024;-44
2022/01/10 12:19:08;;;;;;;31.88;15.35;;;5.30;99.90;;;;;;5083875;28;20312;-43
2022/01/10 12:21:35;;;;;;;31.80;11.82;;;5.40;99.90;;;;;;5056801;28;20069;-44
2022/01/10 12:24:02;;;;;;;32.65;12.52;;;5.40;99.90;;;;;;5056795;28;20036;-44
2022/01/10 12:26:29;;;;;;;25.77;11.35;;;5.30;99.90;;;;;;5059425;28;20351;-43
2022/01/10 12:28:59;;;;;;;26.70;12.45;;;5.30;99.90;;;;;;5053031;28;20033;-44
2022/01/10 12:31:27;;;;;;;27.25;11.98;;;5.30;99.90;;;;;;5058661;28;20029;-44
2022/01/10 12:33:53;;;;;;;26.83;11.68;;;5.30;99.90;;;;;;5073167;28;20481;-45
2022/01/10 12:36:20;;;;;;;27.35;11.38;;;5.30;99.90;;;;;;5078553;28;20047;-44
2022/01/10 12:39:09;;;;;;;26.42;11.55;;;5.30;99.90;;;;;;5072739;28;20028;-44
2022/01/10 12:41:35;;;;;;;24.38;11.57;;;5.30;99.90;;;;;;5065979;28;20045;-44